Time;durP1;ratioP1;P1;durP2;ratioP2;P2;SDS_P1;SDS_P2;PMS_P1;PMS_P2;Temp;Humidity;BMP_temperature;BMP_pressure;BME280_temperature;BME280_humidity;BME280_pressure;Samples;Min_cycle;Max_cycle;Signal;HPM_P1;HPM_P2
2023/09/21 00:00:38;;;;;;;7.80;2.70;;;;;;;17.99;100.00;99943.50;4973473;28;20132;-92
2023/09/21 00:03:06;;;;;;;6.53;3.08;;;;;;;18.09;100.00;99944.19;4989865;28;20034;-92
2023/09/21 00:05:32;;;;;;;4.88;3.05;;;;;;;18.04;100.00;99946.56;5003151;28;20032;-89
2023/09/21 00:07:57;;;;;;;9.63;3.33;;;;;;;17.98;100.00;99947.22;5007291;28;20045;-90
2023/09/21 00:10:31;;;;;;;7.97;3.38;;;;;;;17.95;100.00;99944.84;4981133;28;20038;-89
2023/09/21 00:13:04;;;;;;;8.75;3.35;;;;;;;17.90;100.00;99936.41;4992270;28;20038;-89
2023/09/21 00:15:31;;;;;;;4.88;2.47;;;;;;;17.95;100.00;99931.38;5012021;28;20057;-89
2023/09/21 00:17:58;;;;;;;6.10;2.92;;;;;;;17.87;100.00;99934.88;4976812;28;20052;-88
2023/09/21 00:20:36;;;;;;;8.57;3.17;;;;;;;17.90;100.00;99926.47;4986050;28;20055;-91
2023/09/21 00:23:10;;;;;;;7.30;2.92;;;;;;;17.88;100.00;99924.97;5006346;28;20034;-87
2023/09/21 00:25:36;;;;;;;7.35;3.17;;;;;;;17.90;100.00;99923.78;4962905;28;20067;-90
2023/09/21 00:28:12;;;;;;;4.38;2.80;;;;;;;17.88;100.00;99916.88;4987338;28;20097;-87
2023/09/21 00:30:40;;;;;;;5.05;3.10;;;;;;;17.91;100.00;99913.81;4989777;28;20034;-87
2023/09/21 00:33:08;;;;;;;5.18;2.67;;;;;;;17.92;100.00;99907.41;5008964;28;20073;-89
2023/09/21 00:35:42;;;;;;;5.03;3.17;;;;;;;17.91;100.00;99903.88;4990906;28;20044;-91
2023/09/21 00:38:14;;;;;;;6.47;3.03;;;;;;;17.90;100.00;99894.09;4981888;28;20038;-89
2023/09/21 00:40:43;;;;;;;3.08;2.65;;;;;;;17.92;100.00;99892.06;4990870;28;20090;-90
2023/09/21 00:43:20;;;;;;;7.95;3.40;;;;;;;17.88;100.00;99893.44;4971669;28;20071;-89
2023/09/21 00:45:51;;;;;;;4.40;3.20;;;;;;;17.85;100.00;99886.50;4979903;28;20073;-89
2023/09/21 00:48:23;;;;;;;11.23;2.95;;;;;;;17.91;100.00;99879.59;4969042;28;20101;-88
2023/09/21 00:50:51;;;;;;;8.48;2.75;;;;;;;17.85;100.00;99880.28;5009216;28;20038;-88
2023/09/21 00:53:17;;;;;;;5.63;2.72;;;;;;;17.79;100.00;99871.00;4986181;28;20058;-90
2023/09/21 00:55:51;;;;;;;6.80;2.95;;;;;;;17.86;100.00;99871.16;4983830;28;20126;-91
2023/09/21 00:58:19;;;;;;;6.75;2.97;;;;;;;17.81;100.00;99862.75;4995430;28;20042;-87
2023/09/21 01:00:46;;;;;;;7.25;3.10;;;;;;;17.84;100.00;99857.03;4996829;28;20049;-89
2023/09/21 01:03:13;;;;;;;8.57;3.50;;;;;;;17.89;100.00;99849.25;4990038;28;20118;-88
2023/09/21 01:05:45;;;;;;;10.15;2.95;;;;;;;17.87;100.00;99848.56;4998595;28;20077;-88
2023/09/21 01:08:14;;;;;;;7.55;3.00;;;;;;;17.85;100.00;99858.69;5010680;28;20037;-90
2023/09/21 01:10:42;;;;;;;4.95;2.85;;;;;;;17.89;100.00;99845.72;4994844;28;20042;-86
2023/09/21 01:13:10;;;;;;;9.45;2.67;;;;;;;17.80;100.00;99848.41;4980634;28;20031;-87
2023/09/21 01:15:36;;;;;;;5.68;2.90;;;;;;;17.86;100.00;99846.91;4994811;28;20090;-90
2023/09/21 01:18:07;;;;;;;4.82;2.88;;;;;;;17.85;100.00;99840.66;5005968;28;20555;-90
2023/09/21 01:20:33;;;;;;;4.63;3.03;;;;;;;17.86;100.00;99828.00;4993967;28;20030;-89
2023/09/21 01:23:18;;;;;;;3.85;2.55;;;;;;;17.92;100.00;99831.88;5007578;28;20022;-87
2023/09/21 01:25:50;;;;;;;5.40;3.00;;;;;;;17.89;100.00;99827.69;4972931;28;20039;-88
2023/09/21 01:28:20;;;;;;;6.43;3.22;;;;;;;17.80;100.00;99816.06;4995806;28;20045;-88
2023/09/21 01:30:48;;;;;;;6.20;2.88;;;;;;;17.85;100.00;99821.78;5014628;28;20038;-90
2023/09/21 01:33:18;;;;;;;7.00;2.42;;;;;;;17.89;100.00;99821.44;4997165;28;20045;-87
2023/09/21 01:35:44;;;;;;;4.82;3.42;;;;;;;17.97;100.00;99818.72;4986691;28;20056;-88
2023/09/21 01:38:12;;;;;;;5.53;2.80;;;;;;;17.96;100.00;99820.59;5004182;28;20207;-90
2023/09/21 01:40:40;;;;;;;6.35;2.60;;;;;;;17.90;100.00;99812.34;5017352;28;20117;-90
2023/09/21 01:43:11;;;;;;;6.68;2.90;;;;;;;17.92;100.00;99813.84;5001265;28;20061;-88
2023/09/21 01:45:40;;;;;;;7.97;3.00;;;;;;;17.92;100.00;99813.00;5016808;28;20073;-89
2023/09/21 01:48:10;;;;;;;6.20;3.10;;;;;;;17.85;100.00;99810.16;5020648;28;20057;-89
2023/09/21 01:50:47;;;;;;;6.28;2.80;;;;;;;17.78;100.00;99806.47;4980507;28;20046;-89
2023/09/21 01:53:16;;;;;;;3.50;2.40;;;;;;;17.87;100.00;99797.31;4981544;28;20034;-92
2023/09/21 01:55:43;;;;;;;5.75;2.67;;;;;;;17.91;100.00;99798.69;4975111;28;20038;-90
2023/09/21 01:58:09;;;;;;;4.35;2.53;;;;;;;17.90;100.00;99796.16;4995922;28;20085;-88
2023/09/21 02:00:39;;;;;;;5.93;2.88;;;;;;;17.96;100.00;99804.41;4974080;28;20030;-91
2023/09/21 02:03:08;;;;;;;7.05;2.92;;;;;;;17.92;100.00;99803.06;4997496;28;20043;-91
2023/09/21 02:05:46;;;;;;;8.50;2.92;;;;;;;17.96;100.00;99795.47;4997277;28;20018;-91
2023/09/21 02:08:12;;;;;;;5.65;2.78;;;;;;;17.94;100.00;99781.31;4982012;28;20560;-91
2023/09/21 02:10:42;;;;;;;3.97;2.50;;;;;;;17.95;100.00;99777.59;4973404;28;20031;-89
2023/09/21 02:13:08;;;;;;;5.53;2.72;;;;;;;17.96;100.00;99780.13;4998763;28;20050;-89
2023/09/21 02:15:37;;;;;;;6.10;2.67;;;;;;;17.95;100.00;99773.06;4996034;28;20039;-90
2023/09/21 02:18:07;;;;;;;;;;;;;;;18.02;100.00;99767.81;4979412;28;20026;-91
2023/09/21 02:20:35;;;;;;;5.45;2.60;;;;;;;17.99;100.00;99766.31;4993957;28;19928;-88
2023/09/21 02:23:02;;;;;;;3.70;2.55;;;;;;;18.07;100.00;99762.72;4965799;28;20039;-91
2023/09/21 02:25:34;;;;;;;7.30;3.13;;;;;;;18.01;100.00;99761.56;4975519;28;20077;-92
2023/09/21 02:28:09;;;;;;;6.47;2.88;;;;;;;18.02;100.00;99762.41;4983540;28;20049;-86
2023/09/21 02:30:40;;;;;;;6.45;2.72;;;;;;;18.02;100.00;99759.72;4988658;28;20065;-88
2023/09/21 02:33:09;;;;;;;4.10;2.80;;;;;;;17.96;100.00;99757.72;4984849;28;20045;-88
2023/09/21 02:35:41;;;;;;;4.22;2.35;;;;;;;17.91;100.00;99749.28;4988680;28;20022;-90
2023/09/21 02:38:08;;;;;;;3.83;2.67;;;;;;;17.91;100.00;99754.69;4994351;28;20023;-93
2023/09/21 02:40:34;;;;;;;4.55;2.47;;;;;;;17.93;100.00;99747.28;4991077;28;20035;-94
2023/09/21 02:43:00;;;;;;;3.22;2.47;;;;;;;17.94;100.00;99748.94;4989706;28;20039;-91
2023/09/21 02:45:29;;;;;;;9.27;3.13;;;;;;;17.87;100.00;99748.78;4976144;28;20034;-92
2023/09/21 02:48:00;;;;;;;6.55;2.45;;;;;;;17.88;100.00;99750.50;4995013;28;20038;-87
2023/09/21 02:50:31;;;;;;;4.82;2.40;;;;;;;17.77;100.00;99746.28;4998132;28;20131;-87
2023/09/21 02:53:09;;;;;;;4.68;2.50;;;;;;;17.84;100.00;99755.38;4995514;28;20038;-91
2023/09/21 02:55:36;;;;;;;6.28;2.70;;;;;;;17.85;100.00;99767.00;4973961;28;20050;-88
2023/09/21 02:58:10;;;;;;;7.00;2.83;;;;;;;17.82;100.00;99760.09;4977374;28;20081;-91
2023/09/21 03:00:43;;;;;;;5.88;3.00;;;;;;;17.82;100.00;99756.53;4975566;28;20138;-87
2023/09/21 03:03:15;;;;;;;6.47;3.40;;;;;;;17.84;100.00;99768.00;4991576;28;20037;-89
2023/09/21 03:05:45;;;;;;;4.05;2.67;;;;;;;17.89;100.00;99754.03;4987612;28;20034;-89
2023/09/21 03:08:13;;;;;;;5.78;3.05;;;;;;;17.85;100.00;99758.91;4979760;28;20031;-92
2023/09/21 03:10:44;;;;;;;4.80;3.35;;;;;;;17.89;100.00;99760.25;4988349;28;20114;-87
2023/09/21 03:13:10;;;;;;;5.80;3.35;;;;;;;17.95;100.00;99747.94;4989041;28;20046;-92
2023/09/21 03:15:36;;;;;;;9.48;2.88;;;;;;;17.98;100.00;99753.00;4986410;28;20031;-92
2023/09/21 03:18:07;;;;;;;3.83;2.72;;;;;;;17.89;100.00;99748.63;4970230;28;20078;-90
2023/09/21 03:20:36;;;;;;;6.95;2.95;;;;;;;17.94;100.00;99736.31;4970067;28;20035;-91
2023/09/21 03:23:05;;;;;;;9.32;3.00;;;;;;;17.97;100.00;99741.38;4986375;28;20038;-92
2023/09/21 03:25:40;;;;;;;4.90;2.97;;;;;;;18.02;100.00;99743.53;4994030;28;20035;-88
2023/09/21 03:28:15;;;;;;;4.18;3.17;;;;;;;17.98;100.00;99742.22;5003654;28;21177;-90
2023/09/21 03:30:42;;;;;;;5.47;2.95;;;;;;;18.05;100.00;99749.44;5005203;28;20022;-87
2023/09/21 03:33:09;;;;;;;4.22;2.47;;;;;;;18.04;100.00;99742.34;4987145;28;20125;-92
2023/09/21 03:35:37;;;;;;;6.03;3.17;;;;;;;18.02;100.00;99736.31;4985327;28;20026;-91
2023/09/21 03:38:06;;;;;;;6.43;3.38;;;;;;;18.03;100.00;99737.13;5000769;28;20043;-92
2023/09/21 03:40:34;;;;;;;6.90;3.15;;;;;;;18.06;100.00;99739.47;4994256;28;21177;-92
2023/09/21 03:43:00;;;;;;;4.93;3.17;;;;;;;18.07;100.00;99724.97;4983548;28;20114;-90
2023/09/21 03:45:26;;;;;;;4.65;3.20;;;;;;;18.10;100.00;99730.03;4973858;28;20034;-88
2023/09/21 03:47:53;;;;;;;5.32;3.08;;;;;;;18.01;100.00;99728.34;5001829;28;20034;-88
2023/09/21 03:50:20;;;;;;;3.90;2.50;;;;;;;18.07;100.00;99731.22;4969590;28;20046;-91
2023/09/21 03:52:47;;;;;;;4.38;2.80;;;;;;;18.03;100.00;99724.50;4971367;28;20113;-90
2023/09/21 03:55:16;;;;;;;5.07;2.90;;;;;;;18.01;100.00;99723.81;4988780;28;20034;-93
2023/09/21 03:57:46;;;;;;;4.57;3.03;;;;;;;17.94;100.00;99724.69;4986496;28;20164;-90
2023/09/21 04:02:46;;;;;;;6.10;2.60;;;;;;;17.88;100.00;99720.81;4990751;28;20046;-89
2023/09/21 04:05:14;;;;;;;5.60;2.38;;;;;;;17.92;100.00;99718.59;4987416;28;20046;-92
2023/09/21 04:07:40;;;;;;;6.10;2.95;;;;;;;17.86;100.00;99715.56;4992250;28;20045;-89
2023/09/21 04:10:06;;;;;;;3.10;2.58;;;;;;;17.74;100.00;99714.25;4997415;28;20038;-91
2023/09/21 04:12:32;;;;;;;4.53;2.53;;;;;;;17.72;100.00;99716.28;4971665;28;20031;-87
2023/09/21 04:14:58;;;;;;;5.63;2.75;;;;;;;17.83;100.00;99704.31;4984267;28;20035;-90
2023/09/21 04:17:26;;;;;;;5.93;2.78;;;;;;;17.87;100.00;99713.72;4970055;28;20049;-89
2023/09/21 04:19:54;;;;;;;7.80;2.90;;;;;;;17.82;100.00;99705.28;4961218;28;20042;-88
2023/09/21 04:22:20;;;;;;;6.97;3.00;;;;;;;17.82;100.00;99698.06;5003993;28;20038;-89
2023/09/21 04:24:45;;;;;;;11.55;2.88;;;;;;;17.93;100.00;99696.88;4967370;28;20037;-91
2023/09/21 04:27:11;;;;;;;6.10;2.42;;;;;;;17.96;100.00;99698.38;5004550;28;20046;-89
2023/09/21 04:29:40;;;;;;;6.68;3.10;;;;;;;17.95;100.00;99702.06;5004479;28;20030;-88
2023/09/21 04:32:07;;;;;;;10.32;2.92;;;;;;;17.94;100.00;99692.31;4996264;28;20032;-92
2023/09/21 04:34:34;;;;;;;6.07;2.88;;;;;;;17.90;100.00;99697.19;4966751;28;20046;-92
2023/09/21 04:36:59;;;;;;;6.55;2.78;;;;;;;17.88;100.00;99693.00;4988489;28;20236;-90
2023/09/21 04:39:25;;;;;;;4.68;2.28;;;;;;;17.91;100.00;99687.25;4992435;28;20030;-91
2023/09/21 04:41:52;;;;;;;3.92;3.00;;;;;;;17.86;100.00;99694.00;4986017;28;20126;-87
2023/09/21 04:44:18;;;;;;;3.88;2.67;;;;;;;17.81;100.00;99695.53;4966417;28;20992;-89
2023/09/21 04:46:44;;;;;;;4.38;2.85;;;;;;;17.79;100.00;99684.94;4985073;28;20107;-89
2023/09/21 04:49:09;;;;;;;4.88;2.65;;;;;;;17.82;100.00;99695.38;4989079;28;20027;-90
2023/09/21 04:51:35;;;;;;;6.05;2.90;;;;;;;17.75;100.00;99693.53;4988139;28;20365;-89
2023/09/21 04:54:00;;;;;;;7.85;2.80;;;;;;;17.70;100.00;99693.16;4968720;28;20124;-91
2023/09/21 04:56:32;;;;;;;4.88;2.85;;;;;;;17.65;100.00;99682.06;4977991;28;20039;-94
2023/09/21 04:58:58;;;;;;;;;;;;;;;17.78;100.00;99688.63;4982598;28;20196;-88
2023/09/21 05:01:25;;;;;;;9.15;2.92;;;;;;;17.88;100.00;99698.41;4965248;28;19917;-92
2023/09/21 05:03:51;;;;;;;3.85;2.53;;;;;;;17.95;100.00;99696.69;4985448;28;20042;-88
2023/09/21 05:06:18;;;;;;;7.90;2.70;;;;;;;18.03;100.00;99713.69;4986048;28;20467;-93
2023/09/21 05:08:45;;;;;;;6.25;2.60;;;;;;;18.08;100.00;99705.94;4983522;28;20031;-88
2023/09/21 05:11:10;;;;;;;6.00;3.00;;;;;;;18.00;100.00;99688.91;5002662;28;20031;-94
2023/09/21 05:13:36;;;;;;;2.88;2.33;;;;;;;17.99;100.00;99690.78;4974296;28;20396;-88
2023/09/21 05:16:03;;;;;;;7.35;2.50;;;;;;;18.20;100.00;99708.25;4984854;28;20137;-90
2023/09/21 05:18:30;;;;;;;7.85;2.60;;;;;;;18.20;100.00;99709.06;4985837;28;20416;-91
2023/09/21 05:21:01;;;;;;;9.40;3.08;;;;;;;18.26;100.00;99697.56;4990492;28;20038;-87
2023/09/21 05:23:33;;;;;;;5.32;2.75;;;;;;;18.19;100.00;99691.22;4986580;28;20034;-93
2023/09/21 05:25:59;;;;;;;4.97;3.00;;;;;;;18.26;100.00;99694.88;4989868;28;20034;-91
2023/09/21 05:28:25;;;;;;;5.72;2.95;;;;;;;18.28;100.00;99694.72;4973612;28;20026;-89
2023/09/21 05:30:50;;;;;;;7.57;3.50;;;;;;;18.40;100.00;99696.00;4967180;28;20078;-91
2023/09/21 05:33:16;;;;;;;6.93;2.85;;;;;;;18.43;100.00;99698.38;4989198;28;20039;-90
2023/09/21 05:35:50;;;;;;;5.57;2.88;;;;;;;18.73;100.00;99685.91;4970974;28;20027;-92
2023/09/21 05:38:16;;;;;;;5.03;2.97;;;;;;;18.80;100.00;99689.56;5006552;28;20039;-90
2023/09/21 05:40:41;;;;;;;10.80;2.88;;;;;;;18.84;100.00;99695.47;4991839;28;20216;-91
2023/09/21 05:43:07;;;;;;;6.57;3.20;;;;;;;18.85;100.00;99699.84;4986372;28;20081;-90
2023/09/21 05:45:33;;;;;;;4.55;3.20;;;;;;;18.85;100.00;99692.56;4981992;28;20049;-92
2023/09/21 05:47:58;;;;;;;8.43;3.30;;;;;;;19.01;100.00;99694.31;4981694;28;20335;-92
2023/09/21 05:50:24;;;;;;;5.53;3.38;;;;;;;19.04;100.00;99696.69;5019240;28;20054;-88
2023/09/21 05:52:50;;;;;;;5.68;2.75;;;;;;;19.21;100.00;99693.84;4984784;28;20187;-88
2023/09/21 05:55:16;;;;;;;7.57;2.80;;;;;;;19.11;100.00;99691.38;4971984;28;20038;-88
2023/09/21 05:57:46;;;;;;;6.07;3.00;;;;;;;19.15;100.00;99692.72;4969693;28;20035;-91
2023/09/21 06:00:13;;;;;;;8.48;3.35;;;;;;;19.10;100.00;99701.34;4982681;28;20060;-92
2023/09/21 06:02:39;;;;;;;7.70;2.80;;;;;;;19.18;100.00;99691.50;4984186;28;20070;-88
2023/09/21 06:05:10;;;;;;;5.55;3.55;;;;;;;19.09;100.00;99685.34;4986720;28;20096;-90
2023/09/21 06:07:35;;;;;;;4.53;3.13;;;;;;;19.05;100.00;99676.75;4986213;28;20077;-90
2023/09/21 06:10:04;;;;;;;6.63;3.13;;;;;;;19.09;100.00;99675.34;4989901;28;20034;-91
2023/09/21 06:12:30;;;;;;;4.53;2.83;;;;;;;19.13;100.00;99668.56;5001669;28;20114;-91
2023/09/21 06:14:58;;;;;;;6.22;2.92;;;;;;;19.06;100.00;99662.19;4972788;28;20038;-89
2023/09/21 06:17:25;;;;;;;4.57;2.40;;;;;;;19.07;100.00;99657.63;4989834;28;20092;-95
2023/09/21 06:19:53;;;;;;;6.90;2.80;;;;;;;19.08;100.00;99652.06;4989035;28;20655;-93
2023/09/21 06:22:19;;;;;;;9.05;3.15;;;;;;;19.05;100.00;99651.56;4978296;28;20839;-96
2023/09/21 06:24:44;;;;;;;8.25;2.58;;;;;;;19.07;100.00;99642.25;4974388;28;20031;-88
2023/09/21 06:27:14;;;;;;;7.15;3.38;;;;;;;18.95;100.00;99651.81;4980303;28;20046;-89
2023/09/21 06:29:41;;;;;;;11.18;2.90;;;;;;;18.98;100.00;99640.66;4980595;28;20039;-91
2023/09/21 06:32:07;;;;;;;5.15;2.70;;;;;;;19.01;100.00;99642.97;4986772;28;20045;-89
2023/09/21 06:34:34;;;;;;;11.75;3.45;;;;;;;19.21;100.00;99645.19;4986598;28;20978;-92
2023/09/21 06:37:00;;;;;;;10.57;3.92;;;;;;;19.32;100.00;99647.44;4985401;28;20677;-90
2023/09/21 06:39:29;;;;;;;6.22;3.25;;;;;;;19.30;100.00;99653.03;4998263;28;20034;-91
2023/09/21 06:41:55;;;;;;;9.25;3.30;;;;;;;19.29;100.00;99650.53;4981917;28;20110;-95
2023/09/21 06:44:22;;;;;;;8.52;3.20;;;;;;;19.48;100.00;99646.44;4987899;28;20124;-94
2023/09/21 06:46:49;;;;;;;8.00;2.65;;;;;;;19.71;100.00;99652.66;4983638;28;20038;-88
2023/09/21 06:49:15;;;;;;;8.80;2.97;;;;;;;19.80;100.00;99650.72;4988753;28;20793;-90
2023/09/21 06:51:41;;;;;;;7.07;2.83;;;;;;;19.79;100.00;99659.88;4973283;28;20097;-92
2023/09/21 06:54:07;;;;;;;10.60;3.20;;;;;;;19.81;100.00;99663.22;4989293;28;20109;-89
2023/09/21 06:56:32;;;;;;;5.70;3.15;;;;;;;19.77;100.00;99653.78;4971009;28;20038;-90
2023/09/21 06:58:58;;;;;;;6.68;3.10;;;;;;;19.73;100.00;99655.19;4981337;28;20136;-91
2023/09/21 07:01:26;;;;;;;7.45;2.95;;;;;;;19.70;100.00;99652.88;4987891;28;20047;-90
2023/09/21 07:03:52;;;;;;;4.43;2.88;;;;;;;19.75;100.00;99659.41;4970025;28;20035;-90
2023/09/21 07:06:21;;;;;;;5.25;2.70;;;;;;;19.69;100.00;99656.59;4983819;28;20170;-94
2023/09/21 07:08:47;;;;;;;7.38;2.97;;;;;;;19.71;100.00;99662.66;4981821;28;20940;-91
2023/09/21 07:11:18;;;;;;;7.13;2.67;;;;;;;19.58;100.00;99669.53;4982533;28;20030;-90
2023/09/21 07:13:44;;;;;;;5.60;3.33;;;;;;;19.52;100.00;99664.00;4987403;28;20035;-88
2023/09/21 07:16:10;;;;;;;7.78;2.97;;;;;;;19.33;100.00;99678.91;4973703;28;20058;-90
2023/09/21 07:18:37;;;;;;;3.65;2.47;;;;;;;19.47;100.00;99671.81;4977751;28;20041;-95
2023/09/21 07:21:03;;;;;;;6.70;3.30;;;;;;;19.40;100.00;99683.38;4974911;28;20079;-89
2023/09/21 07:23:28;;;;;;;4.72;3.30;;;;;;;19.27;100.00;99690.41;4993934;28;20031;-93
2023/09/21 07:25:57;;;;;;;11.98;3.10;;;;;;;19.04;100.00;99691.28;4981070;28;20035;-91
2023/09/21 07:28:23;;;;;;;7.10;3.45;;;;;;;18.72;100.00;99702.28;4962545;28;20039;-90
2023/09/21 07:30:52;;;;;;;8.85;3.17;;;;;;;18.58;100.00;99701.16;4986679;28;20121;-88
2023/09/21 07:33:20;;;;;;;4.93;3.10;;;;;;;18.64;100.00;99711.25;4992878;28;20038;-92
2023/09/21 07:35:47;;;;;;;7.07;3.78;;;;;;;18.66;100.00;99706.50;4979866;28;20045;-90
2023/09/21 07:38:13;;;;;;;8.25;3.97;;;;;;;18.59;100.00;99711.78;4996872;28;20034;-93
2023/09/21 07:40:40;;;;;;;11.10;3.42;;;;;;;18.64;100.00;99698.59;4978375;28;20091;-89
2023/09/21 07:43:06;;;;;;;7.15;3.63;;;;;;;18.68;100.00;99700.94;4997432;28;20034;-88
2023/09/21 07:45:33;;;;;;;6.03;3.78;;;;;;;18.79;100.00;99703.28;4981392;28;20816;-88
2023/09/21 07:47:59;;;;;;;9.75;3.72;;;;;;;18.77;100.00;99703.41;4969976;28;20065;-93
2023/09/21 07:50:27;;;;;;;7.90;4.35;;;;;;;18.81;100.00;99702.06;4988396;28;20058;-94
2023/09/21 07:52:56;;;;;;;8.02;4.10;;;;;;;18.84;100.00;99692.75;4965728;28;20041;-92
2023/09/21 07:55:22;;;;;;;13.70;4.13;;;;;;;18.68;100.00;99700.94;4986353;28;20031;-91
2023/09/21 07:57:48;;;;;;;8.82;4.22;;;;;;;18.79;100.00;99698.69;4970835;28;20043;-91
2023/09/21 08:00:18;;;;;;;9.38;3.58;;;;;;;18.78;100.00;99701.59;4985966;28;20073;-90
2023/09/21 08:02:44;;;;;;;8.75;3.92;;;;;;;18.71;100.00;99706.00;4983447;28;20156;-93
2023/09/21 08:05:09;;;;;;;4.97;3.55;;;;;;;18.73;100.00;99701.28;4969443;28;20034;-89
2023/09/21 08:07:41;;;;;;;5.30;3.42;;;;;;;18.71;100.00;99697.91;4980874;28;20046;-91
2023/09/21 08:10:10;;;;;;;9.60;3.97;;;;;;;18.49;100.00;99707.63;4978412;28;20041;-91
2023/09/21 08:12:38;;;;;;;13.48;4.35;;;;;;;18.43;100.00;99711.88;4991100;28;20053;-92
2023/09/21 08:15:06;;;;;;;8.45;4.28;;;;;;;18.44;100.00;99716.25;4976708;28;20433;-93
2023/09/21 08:17:32;;;;;;;8.55;4.50;;;;;;;18.35;100.00;99715.44;4977851;28;20057;-93
2023/09/21 08:19:58;;;;;;;8.52;4.47;;;;;;;18.37;100.00;99721.50;5012425;28;20042;-92
2023/09/21 08:22:27;;;;;;;9.88;3.88;;;;;;;18.34;100.00;99713.75;5013142;28;20038;-91
2023/09/21 08:24:59;;;;;;;7.97;4.63;;;;;;;18.34;100.00;99727.25;4994116;28;20091;-91
2023/09/21 08:27:28;;;;;;;6.00;4.23;;;;;;;18.26;100.00;99718.34;4993364;28;20050;-91
2023/09/21 08:29:55;;;;;;;4.90;3.83;;;;;;;18.52;100.00;99729.69;4963169;28;20446;-90
2023/09/21 08:32:27;;;;;;;6.88;4.22;;;;;;;18.37;100.00;99737.72;4995057;28;20027;-91
2023/09/21 08:34:57;;;;;;;11.80;4.72;;;;;;;18.38;100.00;99746.66;4978324;28;20054;-89
2023/09/21 08:37:22;;;;;;;8.82;4.78;;;;;;;18.33;100.00;99746.31;5010463;28;20023;-89
2023/09/21 08:39:48;;;;;;;10.50;5.10;;;;;;;18.22;100.00;99752.91;4995583;28;20026;-89
2023/09/21 08:42:17;;;;;;;7.78;4.47;;;;;;;18.24;100.00;99747.38;4994557;28;20045;-89
2023/09/21 08:44:43;;;;;;;9.15;5.00;;;;;;;18.21;100.00;99751.22;4996318;28;20042;-88
2023/09/21 08:47:13;;;;;;;9.40;5.00;;;;;;;18.27;100.00;99750.56;4997988;28;20061;-90
2023/09/21 08:49:45;;;;;;;10.50;4.90;;;;;;;18.31;100.00;99749.19;4994140;28;20050;-88
2023/09/21 08:52:13;;;;;;;13.93;5.35;;;;;;;18.38;100.00;99757.44;4996452;28;20033;-90
2023/09/21 08:54:42;;;;;;;6.40;5.00;;;;;;;18.34;100.00;99761.50;4994536;28;20164;-89
2023/09/21 08:57:11;;;;;;;8.32;4.63;;;;;;;18.45;100.00;99761.13;5017593;28;20082;-90
2023/09/21 08:59:41;;;;;;;9.82;5.20;;;;;;;18.41;100.00;99764.34;5015106;28;20042;-90
2023/09/21 09:02:12;;;;;;;13.05;5.88;;;;;;;18.41;100.00;99767.88;4993015;28;20067;-89
2023/09/21 09:04:44;;;;;;;8.50;5.38;;;;;;;18.22;100.00;99784.47;5006154;28;20126;-90
2023/09/21 09:07:13;;;;;;;12.18;5.95;;;;;;;18.21;100.00;99782.78;4999616;28;20042;-89
2023/09/21 09:09:42;;;;;;;10.80;5.25;;;;;;;18.31;100.00;99776.16;5016050;28;20193;-89
2023/09/21 09:12:23;;;;;;;8.07;5.60;;;;;;;18.40;100.00;99784.25;5006908;28;20031;-90
2023/09/21 09:14:54;;;;;;;10.48;6.18;;;;;;;18.37;100.00;99774.63;4970314;28;20040;-88
2023/09/21 09:17:20;;;;;;;13.55;6.40;;;;;;;18.32;100.00;99777.88;4976441;28;20035;-89
2023/09/21 09:19:48;;;;;;;17.40;6.95;;;;;;;18.17;100.00;99778.72;4993070;28;20065;-88
2023/09/21 09:22:17;;;;;;;10.05;6.50;;;;;;;18.26;100.00;99775.84;4990665;28;20034;-91
2023/09/21 09:24:47;;;;;;;7.22;5.20;;;;;;;18.39;100.00;99780.72;5009023;28;20073;-89
2023/09/21 09:27:13;;;;;;;8.73;5.45;;;;;;;18.45;100.00;99788.09;4991195;28;20089;-90
2023/09/21 09:29:54;;;;;;;13.07;5.90;;;;;;;18.48;100.00;99787.78;4987982;28;20598;-91
2023/09/21 09:32:23;;;;;;;10.07;5.30;;;;;;;18.41;100.00;99786.75;4967762;28;20039;-90
2023/09/21 09:34:50;;;;;;;12.80;5.70;;;;;;;18.52;100.00;99786.38;4991785;28;20042;-91
2023/09/21 09:37:16;;;;;;;6.10;5.10;;;;;;;18.71;100.00;99781.63;4984712;28;20046;-88
2023/09/21 09:39:45;;;;;;;5.93;4.95;;;;;;;18.85;100.00;99779.03;4993327;28;20062;-91
2023/09/21 09:42:15;;;;;;;8.60;4.82;;;;;;;18.98;100.00;99759.56;4989617;28;20038;-91
2023/09/21 09:44:44;;;;;;;9.30;4.72;;;;;;;19.13;100.00;99749.66;4987239;28;20031;-91
2023/09/21 09:47:12;;;;;;;11.13;5.15;;;;;;;19.47;100.00;99742.97;5005363;28;20031;-94
2023/09/21 09:49:40;;;;;;;7.53;4.93;;;;;;;19.76;100.00;99744.09;4973589;28;20034;-92
2023/09/21 09:52:09;;;;;;;10.43;4.65;;;;;;;19.85;100.00;99748.41;4987654;28;20035;-90
2023/09/21 09:54:39;;;;;;;9.73;4.97;;;;;;;19.84;100.00;99754.84;4974273;28;20237;-94
2023/09/21 09:57:11;;;;;;;9.55;5.30;;;;;;;19.88;100.00;99753.44;4991762;28;20038;-94
2023/09/21 09:59:37;;;;;;;7.28;4.80;;;;;;;19.88;100.00;99754.31;5005946;28;20039;-93
2023/09/21 10:02:07;;;;;;;9.32;5.32;;;;;;;19.94;100.00;99743.78;4991134;28;20038;-95
2023/09/21 10:04:39;;;;;;;7.85;5.10;;;;;;;19.92;100.00;99738.53;4974799;28;20031;-92
2023/09/21 10:07:06;;;;;;;10.95;4.80;;;;;;;19.96;100.00;99739.00;4988796;28;20044;-89
2023/09/21 10:09:32;;;;;;;8.30;5.03;;;;;;;20.24;100.00;99739.22;4980828;28;20176;-90
2023/09/21 10:12:03;;;;;;;11.40;5.13;;;;;;;20.33;100.00;99738.06;4986881;28;20031;-93
2023/09/21 10:14:33;;;;;;;11.70;4.90;;;;;;;20.28;100.00;99743.19;5007985;28;20042;-95
2023/09/21 10:17:04;;;;;;;7.05;4.95;;;;;;;20.18;100.00;99727.25;4987253;28;20117;-95
2023/09/21 10:19:38;;;;;;;7.45;4.32;;;;;;;20.44;100.00;99734.91;4997337;28;20058;-91
2023/09/21 10:22:30;;;;;;;8.13;4.60;;;;;;;20.74;100.00;99741.16;4964179;28;20030;-89
2023/09/21 10:24:59;;;;;;;20.52;6.28;;;;;;;20.74;100.00;99735.72;4989165;28;20042;-88
2023/09/21 10:27:33;;;;;;;13.48;5.55;;;;;;;20.72;100.00;99729.66;4967887;28;20047;-93
2023/09/21 10:30:06;;;;;;;8.75;3.72;;;;;;;20.32;100.00;99736.38;4972736;28;20046;-94
2023/09/21 10:32:49;;;;;;;7.25;3.60;;;;;;;20.63;100.00;99731.66;4986574;28;20039;-92
2023/09/21 10:35:21;;;;;;;5.85;3.80;;;;;;;20.75;100.00;99736.56;4982768;28;20039;-92
2023/09/21 10:38:11;;;;;;;5.82;4.00;;;;;;;20.86;100.00;99728.78;4986911;28;20030;-94
2023/09/21 10:40:40;;;;;;;6.85;4.00;;;;;;;20.87;100.00;99727.75;4969593;28;20977;-90
2023/09/21 10:43:38;;;;;;;5.97;3.40;;;;;;;21.10;100.00;99719.44;4985085;28;20041;-93
2023/09/21 10:46:21;;;;;;;9.05;3.45;;;;;;;21.18;100.00;99722.00;4980712;28;20054;-93
2023/09/21 10:48:49;;;;;;;6.43;3.50;;;;;;;20.85;100.00;99720.84;4971344;28;20109;-93
2023/09/21 10:51:15;;;;;;;4.45;3.00;;;;;;;20.84;100.00;99713.75;4970972;28;20504;-95
2023/09/21 10:53:42;;;;;;;5.38;3.45;;;;;;;21.08;100.00;99707.09;4987186;28;20049;-94
2023/09/21 10:56:10;;;;;;;9.48;4.38;;;;;;;21.22;100.00;99703.50;4958276;28;20093;-91
2023/09/21 10:58:36;;;;;;;6.65;3.75;;;;;;;21.47;100.00;99709.38;4986156;28;20042;-96
2023/09/21 11:01:02;;;;;;;9.57;4.55;;;;;;;21.38;100.00;99700.53;4970931;28;20081;-89
2023/09/21 11:03:30;;;;;;;5.93;3.35;;;;;;;21.78;100.00;99687.28;4981156;28;20568;-95
2023/09/21 11:05:59;;;;;;;8.10;3.65;;;;;;;22.19;100.00;99692.81;4971440;28;20043;-93
2023/09/21 11:08:25;;;;;;;4.75;2.95;;;;;;;22.35;100.00;99688.91;4989203;28;20037;-94
2023/09/21 11:10:50;;;;;;;7.97;4.32;;;;;;;22.26;100.00;99690.13;4987749;28;20042;-95
2023/09/21 11:13:17;;;;;;;5.80;3.47;;;;;;;22.21;100.00;99681.75;4987906;28;20169;-91
2023/09/21 11:15:44;;;;;;;6.72;3.05;;;;;;;22.48;100.00;99675.38;4987318;28;20042;-91
2023/09/21 11:18:12;;;;;;;7.22;3.13;;;;;;;22.64;100.00;99676.06;4987374;28;20264;-92
2023/09/21 11:20:41;;;;;;;10.27;3.35;;;;;;;22.42;100.00;99681.63;4985900;28;20026;-92
2023/09/21 11:23:07;;;;;;;4.45;2.72;;;;;;;22.64;100.00;99676.91;4970416;28;20039;-95
2023/09/21 11:25:33;;;;;;;6.32;3.00;;;;;;;22.03;100.00;99679.50;4968049;28;20153;-92
2023/09/21 11:28:02;;;;;;;5.10;2.75;;;;;;;21.99;100.00;99675.53;4987092;28;20045;-91
2023/09/21 11:30:34;;;;;;;7.95;3.28;;;;;;;21.85;100.00;99685.47;4971738;28;20058;-92
2023/09/21 11:33:00;;;;;;;4.78;2.75;;;;;;;22.02;100.00;99677.84;5001616;28;20046;-94